createdAt,value
2022-08-24T00:00:07.137Z,24.88
2022-08-24T00:03:13.330Z,24.94
2022-08-24T00:06:19.845Z,24.90
2022-08-24T00:09:25.451Z,24.85
2022-08-24T00:12:32.412Z,24.86
2022-08-24T00:15:37.763Z,24.85
2022-08-24T00:18:43.472Z,24.83
2022-08-24T00:21:49.228Z,24.85
2022-08-24T00:24:54.360Z,24.83
2022-08-24T00:28:01.671Z,24.80
2022-08-24T00:31:08.185Z,24.82
2022-08-24T00:34:18.573Z,24.79
2022-08-24T00:37:24.240Z,24.83
2022-08-24T00:40:33.916Z,24.80
2022-08-24T00:43:40.737Z,24.77
2022-08-24T00:46:48.836Z,24.73
2022-08-24T00:49:56.284Z,24.74
2022-08-24T00:53:04.066Z,24.73
2022-08-24T00:56:16.290Z,24.77
2022-08-24T00:59:23.952Z,24.85
2022-08-24T01:02:32.456Z,24.86
2022-08-24T01:05:38.730Z,24.87
2022-08-24T01:08:44.580Z,24.85
2022-08-24T01:11:50.156Z,24.90
2022-08-24T01:14:57.707Z,24.89
2022-08-24T01:18:20.858Z,24.89
2022-08-24T01:21:29.017Z,24.84
2022-08-24T01:24:36.881Z,24.86
2022-08-24T01:27:43.806Z,24.87
2022-08-24T01:30:49.502Z,24.87
2022-08-24T01:33:55.373Z,24.88
2022-08-24T01:37:00.449Z,24.84
2022-08-24T01:40:07.933Z,24.86
2022-08-24T01:43:15.201Z,24.85
2022-08-24T01:46:21.077Z,24.91
2022-08-24T01:49:27.984Z,24.89
2022-08-24T01:53:01.563Z,24.90
2022-08-24T01:56:01.349Z,24.85
2022-08-24T01:59:07.488Z,24.82
2022-08-24T02:02:15.510Z,24.83
2022-08-24T02:05:20.889Z,24.78
2022-08-24T02:08:26.081Z,24.74
2022-08-24T02:11:33.162Z,24.68
2022-08-24T02:14:38.936Z,24.68
2022-08-24T02:17:44.161Z,24.68
2022-08-24T02:20:49.692Z,24.65
2022-08-24T02:23:55.262Z,24.70
2022-08-24T02:27:02.623Z,24.70
2022-08-24T02:30:08.606Z,24.63
2022-08-24T02:33:14.168Z,24.63
2022-08-24T02:36:25.572Z,24.61
2022-08-24T02:39:31.643Z,24.58
2022-08-24T02:42:38.481Z,24.62
2022-08-24T02:45:49.578Z,24.61
2022-08-24T02:49:10.330Z,24.61
2022-08-24T02:52:17.124Z,24.62
2022-08-24T02:55:22.605Z,24.63
2022-08-24T02:58:29.061Z,24.67
2022-08-24T03:01:34.448Z,24.63
2022-08-24T03:04:39.948Z,24.65
2022-08-24T03:07:45.305Z,24.62
2022-08-24T03:10:50.580Z,24.56
2022-08-24T03:13:59.242Z,24.54
2022-08-24T03:17:05.072Z,24.53
2022-08-24T03:20:12.300Z,24.52
2022-08-24T03:23:17.880Z,24.48
2022-08-24T03:26:23.352Z,24.51
2022-08-24T03:29:33.794Z,24.50
2022-08-24T03:32:39.327Z,24.49
2022-08-24T03:35:44.882Z,24.41
2022-08-24T03:38:50.614Z,24.41
2022-08-24T03:41:55.968Z,24.41
2022-08-24T03:45:02.389Z,24.36
2022-08-24T03:48:08.310Z,24.35
2022-08-24T03:51:15.231Z,24.32
2022-08-24T03:54:20.989Z,24.35
2022-08-24T03:57:26.184Z,24.34
2022-08-24T04:00:33.290Z,24.29
2022-08-24T04:03:39.118Z,24.32
2022-08-24T04:06:46.867Z,24.34
2022-08-24T04:09:52.437Z,24.40
2022-08-24T04:12:58.571Z,24.42
2022-08-24T04:16:07.661Z,24.48
2022-08-24T04:19:14.460Z,24.52
2022-08-24T04:22:19.962Z,24.51
2022-08-24T04:25:25.359Z,24.56
2022-08-24T04:28:31.159Z,24.55
2022-08-24T04:31:38.158Z,24.55
2022-08-24T04:34:43.927Z,24.63
2022-08-24T04:37:49.120Z,24.62
2022-08-24T04:40:55.029Z,24.62
2022-08-24T04:44:06.061Z,24.65
2022-08-24T04:47:13.122Z,24.66
2022-08-24T04:50:19.154Z,24.67
2022-08-24T04:53:36.660Z,24.63
2022-08-24T04:56:42.920Z,24.61
2022-08-24T04:59:48.560Z,24.59
2022-08-24T05:02:55.265Z,24.64
2022-08-24T05:06:00.567Z,24.74
2022-08-24T05:09:06.076Z,24.80
2022-08-24T05:12:11.850Z,24.91
2022-08-24T05:15:17.522Z,24.91
2022-08-24T05:18:23.617Z,24.93
2022-08-24T05:21:30.933Z,24.91
2022-08-24T05:24:36.416Z,24.86
2022-08-24T05:27:41.884Z,24.80
2022-08-24T05:30:47.182Z,24.76
2022-08-24T05:34:01.207Z,24.68
2022-08-24T05:37:06.717Z,24.67
2022-08-24T05:40:12.957Z,24.64
2022-08-24T05:43:18.413Z,24.64
2022-08-24T05:46:23.677Z,24.67
2022-08-24T05:49:31.107Z,24.79
2022-08-24T05:52:36.237Z,24.85
2022-08-24T05:55:41.750Z,24.87
2022-08-24T05:58:47.334Z,24.88
2022-08-24T06:01:53.533Z,25.04
2022-08-24T06:05:00.428Z,25.18
2022-08-24T06:08:05.705Z,25.53
2022-08-24T06:11:10.917Z,25.66
2022-08-24T06:14:17.117Z,25.93
2022-08-24T06:17:22.702Z,26.26
2022-08-24T06:20:30.693Z,26.51
2022-08-24T06:23:36.625Z,26.62
2022-08-24T06:26:58.969Z,26.60
2022-08-24T06:30:06.309Z,26.65
2022-08-24T06:33:11.833Z,26.69
2022-08-24T06:36:18.800Z,26.70
2022-08-24T06:39:28.252Z,26.73
2022-08-24T06:42:34.321Z,26.64
2022-08-24T06:45:41.639Z,26.59
2022-08-24T06:48:51.389Z,26.49
2022-08-24T06:51:58.459Z,26.47
2022-08-24T06:55:04.193Z,26.43
2022-08-24T06:58:10.812Z,26.44
2022-08-24T07:01:17.860Z,26.38
2022-08-24T07:04:28.024Z,26.40
2022-08-24T07:07:35.212Z,26.51
2022-08-24T07:10:40.631Z,26.54
2022-08-24T07:13:46.752Z,26.62
2022-08-24T07:16:52.025Z,26.64
2022-08-24T07:19:57.141Z,26.62
2022-08-24T07:23:03.604Z,26.74
2022-08-24T07:26:09.424Z,26.68
2022-08-24T07:29:44.049Z,26.51
2022-08-24T07:32:44.789Z,26.50
2022-08-24T07:35:50.221Z,26.86
2022-08-24T07:39:01.944Z,27.26
2022-08-24T07:42:19.070Z,27.66
2022-08-24T07:45:33.544Z,28.05
2022-08-24T07:48:38.844Z,28.27
2022-08-24T07:51:46.642Z,28.64
2022-08-24T07:54:53.896Z,28.91
2022-08-24T07:57:59.655Z,29.20
2022-08-24T08:01:06.016Z,29.23
2022-08-24T08:04:11.610Z,29.51
2022-08-24T08:07:17.621Z,29.69
2022-08-24T08:10:25.783Z,29.49
2022-08-24T08:13:31.758Z,29.63
2022-08-24T08:16:38.667Z,29.60
2022-08-24T08:19:44.209Z,29.83
2022-08-24T08:23:06.846Z,30.09
2022-08-24T08:26:16.471Z,30.41
2022-08-24T08:29:22.385Z,30.40
2022-08-24T08:32:27.843Z,30.45
2022-08-24T08:35:34.093Z,30.43
2022-08-24T08:38:41.016Z,30.35
2022-08-24T08:42:07.210Z,30.11
2022-08-24T08:45:28.352Z,30.40
2022-08-24T08:48:47.552Z,30.80
2022-08-24T08:52:15.535Z,30.97
2022-08-24T08:55:29.403Z,31.34
2022-08-24T08:58:57.413Z,31.39
2022-08-24T09:02:11.891Z,31.71
2022-08-24T09:05:28.756Z,31.76
2022-08-24T09:08:41.431Z,31.81
2022-08-24T09:11:53.437Z,31.94
2022-08-24T09:15:17.137Z,31.93
2022-08-24T09:18:32.317Z,32.05
2022-08-24T09:21:55.766Z,32.21
2022-08-24T09:25:07.808Z,32.48
2022-08-24T09:28:15.673Z,32.66
2022-08-24T09:31:42.358Z,32.49
2022-08-24T09:34:54.457Z,32.24
2022-08-24T09:38:01.087Z,32.28
2022-08-24T09:41:18.292Z,32.35
2022-08-24T09:44:44.817Z,32.33
2022-08-24T09:47:59.477Z,32.32
2022-08-24T09:51:25.794Z,32.31
2022-08-24T09:54:49.432Z,32.39
2022-08-24T09:58:02.653Z,32.21
2022-08-24T10:01:12.328Z,32.24
2022-08-24T10:04:24.213Z,32.18
2022-08-24T10:07:35.412Z,31.95
2022-08-24T10:10:48.043Z,31.85
2022-08-24T10:13:59.558Z,31.54
2022-08-24T10:17:11.014Z,31.44
2022-08-24T10:20:23.877Z,31.39
2022-08-24T10:23:38.478Z,31.05
2022-08-24T10:26:56.062Z,30.85
2022-08-24T10:30:34.352Z,30.57
2022-08-24T10:33:49.791Z,30.44
2022-08-24T10:37:06.196Z,30.23
2022-08-24T10:40:33.287Z,30.15
2022-08-24T10:43:52.832Z,30.13
2022-08-24T10:47:00.729Z,30.17
2022-08-24T10:50:31.045Z,30.21
2022-08-24T10:53:37.205Z,30.41
2022-08-24T10:56:43.952Z,30.64
2022-08-24T10:59:56.063Z,30.95
2022-08-24T11:03:06.953Z,31.11
2022-08-24T11:06:16.688Z,31.05
2022-08-24T11:09:21.772Z,30.90
2022-08-24T11:12:28.893Z,31.00
2022-08-24T11:15:34.117Z,30.85
2022-08-24T11:18:50.560Z,30.87
2022-08-24T11:21:58.188Z,30.90
2022-08-24T11:25:06.059Z,30.94
2022-08-24T11:28:21.298Z,31.05
2022-08-24T11:31:32.728Z,30.80
2022-08-24T11:34:40.978Z,30.94
2022-08-24T11:37:48.288Z,31.06
2022-08-24T11:40:56.673Z,30.79
2022-08-24T11:44:05.362Z,30.83
2022-08-24T11:47:28.108Z,30.72
2022-08-24T11:50:36.988Z,30.61
2022-08-24T11:53:57.268Z,30.52
2022-08-24T11:57:08.432Z,30.48
2022-08-24T12:00:17.761Z,30.26
2022-08-24T12:03:34.356Z,30.32
2022-08-24T12:06:46.195Z,30.07
2022-08-24T12:10:03.061Z,30.02
2022-08-24T12:13:11.105Z,30.05
2022-08-24T12:16:21.126Z,30.16
2022-08-24T12:19:28.621Z,30.19
2022-08-24T12:22:34.378Z,30.42
2022-08-24T12:25:58.115Z,30.53
2022-08-24T12:29:05.701Z,30.74
2022-08-24T12:32:13.351Z,30.76
2022-08-24T12:35:20.162Z,30.84
2022-08-24T12:38:27.894Z,30.96
2022-08-24T12:41:36.557Z,31.07
2022-08-24T12:44:46.605Z,31.23
2022-08-24T12:47:55.945Z,31.38
2022-08-24T12:51:08.741Z,31.29
2022-08-24T12:54:23.708Z,31.00
2022-08-24T12:57:54.715Z,31.21
2022-08-24T13:01:06.288Z,31.30
2022-08-24T13:04:17.689Z,31.20
2022-08-24T13:07:29.088Z,31.20
2022-08-24T13:10:37.877Z,30.86
2022-08-24T13:13:47.439Z,30.75
2022-08-24T13:17:09.185Z,30.53
2022-08-24T13:20:20.149Z,30.39
2022-08-24T13:23:27.425Z,30.27
2022-08-24T13:26:35.991Z,30.32
2022-08-24T13:29:43.571Z,30.21
2022-08-24T13:32:51.629Z,30.19
2022-08-24T13:35:58.821Z,30.23
2022-08-24T13:39:13.617Z,30.11
2022-08-24T13:42:29.546Z,30.02
2022-08-24T13:45:38.173Z,30.04
2022-08-24T13:48:48.874Z,30.21
2022-08-24T13:51:57.736Z,30.27
2022-08-24T13:55:12.154Z,30.27
2022-08-24T13:58:24.806Z,30.25
2022-08-24T14:01:38.544Z,30.24
2022-08-24T14:04:46.302Z,30.26
2022-08-24T14:07:56.858Z,30.27
2022-08-24T14:11:08.715Z,30.24
2022-08-24T14:14:17.984Z,30.21
2022-08-24T14:17:47.889Z,30.18
2022-08-24T14:21:09.295Z,30.32
2022-08-24T14:24:23.809Z,30.40
2022-08-24T14:27:37.236Z,30.36
2022-08-24T14:30:54.298Z,30.38
2022-08-24T14:34:13.460Z,30.29
2022-08-24T14:37:21.293Z,30.34
2022-08-24T14:40:32.885Z,30.32
2022-08-24T14:43:51.654Z,30.14
2022-08-24T14:47:04.197Z,30.20
2022-08-24T14:50:15.033Z,30.20
2022-08-24T14:53:31.060Z,30.23
2022-08-24T14:56:45.565Z,30.25
2022-08-24T14:59:56.195Z,30.20
2022-08-24T15:03:12.020Z,30.18
2022-08-24T15:06:27.234Z,30.07
2022-08-24T15:09:35.672Z,30.09
2022-08-24T15:12:44.914Z,30.12
2022-08-24T15:15:53.204Z,30.13
2022-08-24T15:19:02.941Z,30.06
2022-08-24T15:22:11.644Z,30.01
2022-08-24T15:25:19.825Z,30.05
2022-08-24T15:28:27.612Z,30.00
2022-08-24T15:31:33.284Z,29.99
2022-08-24T15:34:42.400Z,30.00
2022-08-24T15:37:48.769Z,30.03
2022-08-24T15:41:04.473Z,30.02
2022-08-24T15:44:21.430Z,30.04
2022-08-24T15:47:31.240Z,29.98
2022-08-24T15:50:43.433Z,29.94
2022-08-24T15:53:50.253Z,29.90
2022-08-24T15:56:57.144Z,29.94
2022-08-24T16:00:08.533Z,29.88
2022-08-24T16:03:20.330Z,29.78
2022-08-24T16:06:27.168Z,29.78
2022-08-24T16:09:37.676Z,29.66
2022-08-24T16:12:42.918Z,29.59
2022-08-24T16:15:50.222Z,29.58
2022-08-24T16:18:58.220Z,29.52
2022-08-24T16:22:05.354Z,29.56
2022-08-24T16:25:16.590Z,29.52
2022-08-24T16:28:35.684Z,29.47
2022-08-24T16:31:45.511Z,29.44
2022-08-24T16:34:51.863Z,29.36
2022-08-24T16:37:57.632Z,29.32
2022-08-24T16:41:06.088Z,29.21
2022-08-24T16:44:12.145Z,29.12
2022-08-24T16:47:18.524Z,29.08
2022-08-24T16:50:27.142Z,29.01
2022-08-24T16:53:33.101Z,28.86
2022-08-24T16:56:40.092Z,28.78
2022-08-24T16:59:46.025Z,28.61
2022-08-24T17:02:51.917Z,28.47
2022-08-24T17:05:58.266Z,28.42
2022-08-24T17:09:03.618Z,-143.72
2022-08-24T17:12:10.383Z,-143.72
2022-08-24T17:15:16.293Z,-143.72
2022-08-24T17:18:22.023Z,-143.72
2022-08-24T17:21:27.701Z,-143.72
2022-08-24T17:24:33.542Z,-143.72
2022-08-24T17:27:40.439Z,-143.72
2022-08-24T17:30:48.608Z,-143.72
2022-08-24T17:33:56.869Z,-143.72
2022-08-24T17:37:02.308Z,-143.72
2022-08-24T17:40:09.794Z,-143.72
2022-08-24T17:43:16.840Z,-143.72
2022-08-24T17:46:22.884Z,-143.72
2022-08-24T17:49:28.712Z,-143.72
2022-08-24T17:52:33.937Z,-143.72
2022-08-24T17:55:39.856Z,-143.72
2022-08-24T17:58:59.993Z,-143.72
2022-08-24T18:02:07.165Z,-143.72
2022-08-24T18:05:14.507Z,-143.72
2022-08-24T18:08:19.948Z,-143.72
2022-08-24T18:11:26.811Z,-143.72
2022-08-24T18:14:34.662Z,-143.72
2022-08-24T18:17:40.669Z,-143.72
2022-08-24T18:20:48.720Z,-143.72
2022-08-24T18:23:55.060Z,-143.72
2022-08-24T18:27:00.805Z,-143.72
2022-08-24T18:30:10.187Z,-143.72
2022-08-24T18:33:15.540Z,-143.72
2022-08-24T18:36:23.521Z,-143.72
2022-08-24T18:39:28.891Z,-143.72
2022-08-24T18:42:34.779Z,-143.72
2022-08-24T18:45:41.734Z,-143.72
2022-08-24T18:48:47.178Z,-143.72
2022-08-24T18:51:52.870Z,-143.72
2022-08-24T18:54:58.646Z,-143.72
2022-08-24T18:58:05.443Z,-143.72
2022-08-24T19:01:13.176Z,-143.72
2022-08-24T19:04:18.592Z,-143.72
2022-08-24T19:07:28.465Z,-143.72
2022-08-24T19:10:36.850Z,-143.72
2022-08-24T19:13:42.004Z,-143.72
2022-08-24T19:16:49.233Z,-143.72
2022-08-24T19:19:57.975Z,-143.72
2022-08-24T19:23:07.549Z,-143.72
2022-08-24T19:26:13.476Z,-143.72
2022-08-24T19:29:38.900Z,-143.72
2022-08-24T19:32:49.902Z,-143.72
2022-08-24T19:35:56.049Z,-143.72
2022-08-24T19:39:01.490Z,-143.72
2022-08-24T19:42:07.520Z,-143.72
2022-08-24T19:45:34.811Z,-143.72
2022-08-24T19:48:44.063Z,-143.72
2022-08-24T19:51:51.097Z,-143.72
2022-08-24T19:54:58.469Z,-143.72
2022-08-24T19:58:06.946Z,-143.72
2022-08-24T20:01:13.990Z,-143.72
2022-08-24T20:04:21.017Z,-143.72
2022-08-24T20:07:26.440Z,-143.72
2022-08-24T20:10:32.470Z,-143.72
2022-08-24T20:13:37.894Z,-143.72
2022-08-24T20:16:43.200Z,-143.72
2022-08-24T20:19:50.099Z,-143.72
2022-08-24T20:22:55.925Z,-143.72
2022-08-24T20:26:02.556Z,-143.72
2022-08-24T20:29:08.092Z,-143.72
2022-08-24T20:32:13.936Z,-143.72
2022-08-24T20:35:20.879Z,-143.72
2022-08-24T20:38:31.742Z,-143.72
2022-08-24T20:41:37.804Z,-143.72
2022-08-24T20:44:43.352Z,-143.72
2022-08-24T20:47:50.289Z,-143.72
2022-08-24T20:51:02.585Z,-143.72
2022-08-24T20:54:08.917Z,-143.72
2022-08-24T20:57:21.747Z,-143.72
2022-08-24T21:00:34.593Z,-143.72
2022-08-24T21:03:40.225Z,-143.72
2022-08-24T21:06:47.158Z,-143.72
2022-08-24T21:09:59.930Z,-143.72
2022-08-24T21:13:08.746Z,-143.72
2022-08-24T21:16:15.078Z,-143.72
2022-08-24T21:19:20.750Z,-143.72
2022-08-24T21:22:27.506Z,-143.72
2022-08-24T21:25:35.640Z,-143.72
2022-08-24T21:28:45.210Z,-143.72
2022-08-24T21:32:04.187Z,-143.72
2022-08-24T21:35:09.570Z,-143.72
2022-08-24T21:38:22.812Z,-143.72
2022-08-24T21:41:30.538Z,-143.72
2022-08-24T21:49:19.383Z,-143.72
2022-08-24T21:53:28.617Z,-143.72
2022-08-24T22:01:14.978Z,-143.72
2022-08-24T22:04:20.482Z,-143.72
2022-08-24T22:07:26.177Z,-143.72
2022-08-24T22:10:32.093Z,-143.72
2022-08-24T22:13:38.743Z,-143.72
2022-08-24T22:16:44.016Z,-143.72
2022-08-24T22:19:49.517Z,-143.72
2022-08-24T22:22:55.262Z,-143.72
2022-08-24T22:26:00.861Z,-143.72
2022-08-24T22:29:08.829Z,-143.72
2022-08-24T22:32:14.302Z,-143.72
2022-08-24T22:35:19.890Z,-143.72
2022-08-24T22:38:25.473Z,-143.72
2022-08-24T22:41:31.952Z,-143.72
2022-08-24T22:44:39.217Z,-143.72
2022-08-24T22:47:44.467Z,-143.72
2022-08-24T22:50:49.881Z,-143.72
2022-08-24T22:53:55.327Z,-143.72
2022-08-24T22:57:00.607Z,-143.72
2022-08-24T23:00:08.572Z,-143.72
2022-08-24T23:03:14.693Z,-143.72
2022-08-24T23:06:20.424Z,-143.72
2022-08-24T23:09:28.680Z,-143.72
2022-08-24T23:12:47.138Z,-143.72
2022-08-24T23:15:53.989Z,-143.72
2022-08-24T23:19:16.734Z,-143.72
2022-08-24T23:22:22.396Z,-143.72
2022-08-24T23:25:27.554Z,-143.72
2022-08-24T23:28:33.245Z,-143.72
2022-08-24T23:31:40.069Z,-143.72
2022-08-24T23:34:45.912Z,-143.72
2022-08-24T23:37:51.477Z,-143.72
2022-08-24T23:40:57.146Z,-143.72
2022-08-24T23:44:04.349Z,-143.72
2022-08-24T23:47:10.775Z,-143.72
2022-08-24T23:50:18.797Z,-143.72
2022-08-24T23:53:25.229Z,-143.72
2022-08-24T23:56:32.121Z,-143.72
2022-08-24T23:59:37.494Z,-143.72
